sensor_id;sensor_type;location;lat;lon;timestamp;P1;durP1;ratioP1;P2;durP2;ratioP2
57337;SDS011;43173;50.980;18.204;2023-03-23T00:01:17;11.40;;;7.40;;
57337;SDS011;43173;50.980;18.204;2023-03-23T00:03:45;10.60;;;6.90;;
57337;SDS011;43173;50.980;18.204;2023-03-23T00:06:12;13.30;;;7.10;;
57337;SDS011;43173;50.980;18.204;2023-03-23T00:08:42;10.00;;;6.30;;
57337;SDS011;43173;50.980;18.204;2023-03-23T00:11:17;12.50;;;7.00;;
57337;SDS011;43173;50.980;18.204;2023-03-23T00:13:45;11.70;;;7.10;;
57337;SDS011;43173;50.980;18.204;2023-03-23T00:16:12;17.00;;;8.40;;
57337;SDS011;43173;50.980;18.204;2023-03-23T00:18:48;12.10;;;6.90;;
57337;SDS011;43173;50.980;18.204;2023-03-23T00:21:20;12.20;;;7.20;;
57337;SDS011;43173;50.980;18.204;2023-03-23T00:23:53;11.20;;;7.30;;
57337;SDS011;43173;50.980;18.204;2023-03-23T00:26:18;12.20;;;7.30;;
57337;SDS011;43173;50.980;18.204;2023-03-23T00:28:44;14.50;;;8.10;;
57337;SDS011;43173;50.980;18.204;2023-03-23T00:31:12;14.40;;;7.80;;
57337;SDS011;43173;50.980;18.204;2023-03-23T00:33:39;15.80;;;8.00;;
57337;SDS011;43173;50.980;18.204;2023-03-23T00:36:08;16.70;;;8.20;;
57337;SDS011;43173;50.980;18.204;2023-03-23T00:38:35;13.50;;;7.50;;
57337;SDS011;43173;50.980;18.204;2023-03-23T00:41:01;13.80;;;7.80;;
57337;SDS011;43173;50.980;18.204;2023-03-23T00:43:27;15.20;;;8.30;;
57337;SDS011;43173;50.980;18.204;2023-03-23T00:45:54;21.40;;;9.20;;
57337;SDS011;43173;50.980;18.204;2023-03-23T00:48:23;39.30;;;14.10;;
57337;SDS011;43173;50.980;18.204;2023-03-23T00:50:50;39.60;;;15.70;;
57337;SDS011;43173;50.980;18.204;2023-03-23T00:53:16;39.20;;;15.90;;
57337;SDS011;43173;50.980;18.204;2023-03-23T00:55:43;34.30;;;14.10;;
57337;SDS011;43173;50.980;18.204;2023-03-23T00:58:09;30.90;;;14.00;;
57337;SDS011;43173;50.980;18.204;2023-03-23T01:00:36;31.30;;;14.50;;
57337;SDS011;43173;50.980;18.204;2023-03-23T01:03:02;32.40;;;15.60;;
57337;SDS011;43173;50.980;18.204;2023-03-23T01:05:28;29.20;;;15.70;;
57337;SDS011;43173;50.980;18.204;2023-03-23T01:07:59;25.00;;;13.30;;
57337;SDS011;43173;50.980;18.204;2023-03-23T01:10:27;19.40;;;11.10;;
57337;SDS011;43173;50.980;18.204;2023-03-23T01:12:53;21.40;;;10.90;;
57337;SDS011;43173;50.980;18.204;2023-03-23T01:15:20;14.10;;;8.60;;
57337;SDS011;43173;50.980;18.204;2023-03-23T01:17:45;15.70;;;8.40;;
57337;SDS011;43173;50.980;18.204;2023-03-23T01:20:12;44.30;;;13.20;;
57337;SDS011;43173;50.980;18.204;2023-03-23T01:22:40;70.20;;;21.60;;
57337;SDS011;43173;50.980;18.204;2023-03-23T01:25:06;71.80;;;22.50;;
57337;SDS011;43173;50.980;18.204;2023-03-23T01:27:33;50.80;;;17.90;;
57337;SDS011;43173;50.980;18.204;2023-03-23T01:29:58;42.10;;;15.00;;
57337;SDS011;43173;50.980;18.204;2023-03-23T01:32:24;22.00;;;9.40;;
57337;SDS011;43173;50.980;18.204;2023-03-23T01:34:50;20.00;;;9.50;;
57337;SDS011;43173;50.980;18.204;2023-03-23T01:37:15;17.00;;;8.00;;
57337;SDS011;43173;50.980;18.204;2023-03-23T01:39:43;16.30;;;8.90;;
57337;SDS011;43173;50.980;18.204;2023-03-23T01:42:09;19.40;;;9.70;;
57337;SDS011;43173;50.980;18.204;2023-03-23T01:47:01;17.70;;;10.20;;
57337;SDS011;43173;50.980;18.204;2023-03-23T01:49:33;31.00;;;14.20;;
57337;SDS011;43173;50.980;18.204;2023-03-23T01:52:03;60.00;;;21.80;;
57337;SDS011;43173;50.980;18.204;2023-03-23T01:54:30;61.20;;;25.10;;
57337;SDS011;43173;50.980;18.204;2023-03-23T01:56:57;46.80;;;18.80;;
57337;SDS011;43173;50.980;18.204;2023-03-23T01:59:43;33.00;;;14.70;;
57337;SDS011;43173;50.980;18.204;2023-03-23T02:02:13;36.30;;;16.50;;
57337;SDS011;43173;50.980;18.204;2023-03-23T02:04:40;26.60;;;13.00;;
57337;SDS011;43173;50.980;18.204;2023-03-23T02:07:07;28.90;;;12.80;;
57337;SDS011;43173;50.980;18.204;2023-03-23T02:09:33;23.10;;;12.20;;
57337;SDS011;43173;50.980;18.204;2023-03-23T02:11:59;21.60;;;11.10;;
57337;SDS011;43173;50.980;18.204;2023-03-23T02:14:26;20.20;;;9.60;;
57337;SDS011;43173;50.980;18.204;2023-03-23T02:16:58;16.40;;;8.80;;
57337;SDS011;43173;50.980;18.204;2023-03-23T02:34:13;10.60;;;7.20;;
57337;SDS011;43173;50.980;18.204;2023-03-23T02:36:46;14.40;;;7.80;;
57337;SDS011;43173;50.980;18.204;2023-03-23T02:39:19;12.70;;;8.30;;
57337;SDS011;43173;50.980;18.204;2023-03-23T02:41:52;13.60;;;8.30;;
57337;SDS011;43173;50.980;18.204;2023-03-23T02:44:20;14.90;;;8.60;;
57337;SDS011;43173;50.980;18.204;2023-03-23T02:46:47;15.70;;;8.90;;
57337;SDS011;43173;50.980;18.204;2023-03-23T02:49:14;13.80;;;8.60;;
57337;SDS011;43173;50.980;18.204;2023-03-23T02:51:40;12.30;;;8.00;;
57337;SDS011;43173;50.980;18.204;2023-03-23T02:54:09;12.60;;;8.00;;
57337;SDS011;43173;50.980;18.204;2023-03-23T02:56:36;13.20;;;8.40;;
57337;SDS011;43173;50.980;18.204;2023-03-23T02:59:02;12.50;;;7.80;;
57337;SDS011;43173;50.980;18.204;2023-03-23T03:03:54;14.50;;;9.00;;
57337;SDS011;43173;50.980;18.204;2023-03-23T03:11:43;22.30;;;13.10;;
57337;SDS011;43173;50.980;18.204;2023-03-23T03:17:10;43.60;;;21.80;;
57337;SDS011;43173;50.980;18.204;2023-03-23T03:19:59;34.70;;;19.60;;
57337;SDS011;43173;50.980;18.204;2023-03-23T03:22:36;26.60;;;14.50;;
57337;SDS011;43173;50.980;18.204;2023-03-23T03:25:04;22.40;;;11.60;;
57337;SDS011;43173;50.980;18.204;2023-03-23T03:27:31;18.10;;;10.10;;
57337;SDS011;43173;50.980;18.204;2023-03-23T03:29:58;13.10;;;8.40;;
57337;SDS011;43173;50.980;18.204;2023-03-23T03:32:26;15.00;;;8.50;;
57337;SDS011;43173;50.980;18.204;2023-03-23T03:37:24;14.60;;;8.30;;
57337;SDS011;43173;50.980;18.204;2023-03-23T03:39:50;14.50;;;8.70;;
57337;SDS011;43173;50.980;18.204;2023-03-23T03:42:16;15.70;;;9.20;;
57337;SDS011;43173;50.980;18.204;2023-03-23T03:44:42;13.20;;;8.30;;
57337;SDS011;43173;50.980;18.204;2023-03-23T03:47:07;16.10;;;8.30;;
57337;SDS011;43173;50.980;18.204;2023-03-23T03:49:33;12.80;;;8.40;;
57337;SDS011;43173;50.980;18.204;2023-03-23T03:51:59;16.80;;;8.90;;
57337;SDS011;43173;50.980;18.204;2023-03-23T03:54:24;13.10;;;8.30;;
57337;SDS011;43173;50.980;18.204;2023-03-23T03:56:50;15.80;;;8.60;;
57337;SDS011;43173;50.980;18.204;2023-03-23T03:59:17;12.80;;;8.80;;
57337;SDS011;43173;50.980;18.204;2023-03-23T04:01:42;16.20;;;8.80;;
57337;SDS011;43173;50.980;18.204;2023-03-23T04:04:08;13.30;;;8.90;;
57337;SDS011;43173;50.980;18.204;2023-03-23T04:06:34;14.20;;;8.90;;
57337;SDS011;43173;50.980;18.204;2023-03-23T04:09:02;19.60;;;9.80;;
57337;SDS011;43173;50.980;18.204;2023-03-23T04:11:31;32.20;;;11.70;;
57337;SDS011;43173;50.980;18.204;2023-03-23T04:13:57;50.20;;;14.70;;
57337;SDS011;43173;50.980;18.204;2023-03-23T04:16:23;57.40;;;17.00;;
57337;SDS011;43173;50.980;18.204;2023-03-23T04:18:49;103.20;;;23.40;;
57337;SDS011;43173;50.980;18.204;2023-03-23T04:21:15;124.00;;;25.40;;
57337;SDS011;43173;50.980;18.204;2023-03-23T04:23:41;140.70;;;29.40;;
57337;SDS011;43173;50.980;18.204;2023-03-23T04:26:07;142.60;;;29.40;;
57337;SDS011;43173;50.980;18.204;2023-03-23T04:28:33;97.40;;;23.30;;
57337;SDS011;43173;50.980;18.204;2023-03-23T04:30:59;118.00;;;26.00;;
57337;SDS011;43173;50.980;18.204;2023-03-23T04:33:26;113.10;;;25.50;;
57337;SDS011;43173;50.980;18.204;2023-03-23T04:35:54;106.70;;;26.10;;
57337;SDS011;43173;50.980;18.204;2023-03-23T04:38:22;82.60;;;23.70;;
57337;SDS011;43173;50.980;18.204;2023-03-23T04:40:50;72.00;;;21.40;;
57337;SDS011;43173;50.980;18.204;2023-03-23T04:43:21;44.00;;;15.00;;
57337;SDS011;43173;50.980;18.204;2023-03-23T04:45:54;26.00;;;11.50;;
57337;SDS011;43173;50.980;18.204;2023-03-23T04:48:24;24.80;;;11.90;;
57337;SDS011;43173;50.980;18.204;2023-03-23T04:50:55;25.10;;;11.50;;
57337;SDS011;43173;50.980;18.204;2023-03-23T04:53:21;19.00;;;10.90;;
57337;SDS011;43173;50.980;18.204;2023-03-23T04:55:47;22.20;;;11.60;;
57337;SDS011;43173;50.980;18.204;2023-03-23T04:58:12;19.20;;;11.20;;
57337;SDS011;43173;50.980;18.204;2023-03-23T05:00:40;19.50;;;12.10;;
57337;SDS011;43173;50.980;18.204;2023-03-23T05:03:09;16.10;;;10.70;;
57337;SDS011;43173;50.980;18.204;2023-03-23T05:05:35;20.20;;;10.90;;
57337;SDS011;43173;50.980;18.204;2023-03-23T05:08:01;18.00;;;10.50;;
57337;SDS011;43173;50.980;18.204;2023-03-23T05:10:27;15.80;;;9.80;;
57337;SDS011;43173;50.980;18.204;2023-03-23T05:12:53;21.70;;;13.00;;
57337;SDS011;43173;50.980;18.204;2023-03-23T05:15:20;25.80;;;14.40;;
57337;SDS011;43173;50.980;18.204;2023-03-23T05:17:46;36.50;;;16.60;;
57337;SDS011;43173;50.980;18.204;2023-03-23T05:20:14;47.00;;;19.00;;
57337;SDS011;43173;50.980;18.204;2023-03-23T05:22:44;47.70;;;17.70;;
57337;SDS011;43173;50.980;18.204;2023-03-23T05:25:12;58.30;;;21.20;;
57337;SDS011;43173;50.980;18.204;2023-03-23T05:27:39;64.30;;;21.30;;
57337;SDS011;43173;50.980;18.204;2023-03-23T05:30:07;66.90;;;22.00;;
57337;SDS011;43173;50.980;18.204;2023-03-23T05:32:34;59.50;;;20.60;;
57337;SDS011;43173;50.980;18.204;2023-03-23T05:35:00;46.80;;;17.30;;
57337;SDS011;43173;50.980;18.204;2023-03-23T05:37:27;41.80;;;16.50;;
57337;SDS011;43173;50.980;18.204;2023-03-23T05:39:57;27.80;;;14.10;;
57337;SDS011;43173;50.980;18.204;2023-03-23T05:42:30;22.20;;;12.80;;
57337;SDS011;43173;50.980;18.204;2023-03-23T05:44:58;16.30;;;10.70;;
57337;SDS011;43173;50.980;18.204;2023-03-23T05:47:24;14.70;;;9.60;;
57337;SDS011;43173;50.980;18.204;2023-03-23T05:49:50;13.40;;;9.20;;
57337;SDS011;43173;50.980;18.204;2023-03-23T05:52:17;14.20;;;9.10;;
57337;SDS011;43173;50.980;18.204;2023-03-23T05:54:44;14.70;;;9.00;;
57337;SDS011;43173;50.980;18.204;2023-03-23T05:57:10;14.80;;;9.00;;
57337;SDS011;43173;50.980;18.204;2023-03-23T05:59:36;12.50;;;9.00;;
57337;SDS011;43173;50.980;18.204;2023-03-23T06:02:02;13.70;;;9.10;;
57337;SDS011;43173;50.980;18.204;2023-03-23T06:04:28;12.60;;;8.90;;
57337;SDS011;43173;50.980;18.204;2023-03-23T06:06:54;14.00;;;8.70;;
57337;SDS011;43173;50.980;18.204;2023-03-23T06:09:19;12.20;;;8.40;;
57337;SDS011;43173;50.980;18.204;2023-03-23T06:11:46;9.50;;;7.00;;
57337;SDS011;43173;50.980;18.204;2023-03-23T06:14:12;15.40;;;8.30;;
57337;SDS011;43173;50.980;18.204;2023-03-23T06:16:38;9.90;;;7.20;;
57337;SDS011;43173;50.980;18.204;2023-03-23T06:19:04;13.00;;;8.00;;
57337;SDS011;43173;50.980;18.204;2023-03-23T06:21:30;13.20;;;7.90;;
57337;SDS011;43173;50.980;18.204;2023-03-23T06:23:57;11.80;;;8.60;;
57337;SDS011;43173;50.980;18.204;2023-03-23T06:26:25;13.30;;;7.90;;
57337;SDS011;43173;50.980;18.204;2023-03-23T06:28:53;15.30;;;7.50;;
57337;SDS011;43173;50.980;18.204;2023-03-23T06:31:20;12.60;;;8.00;;
57337;SDS011;43173;50.980;18.204;2023-03-23T06:33:46;15.40;;;9.40;;
57337;SDS011;43173;50.980;18.204;2023-03-23T06:36:12;17.40;;;9.50;;
57337;SDS011;43173;50.980;18.204;2023-03-23T06:38:38;16.40;;;10.00;;
57337;SDS011;43173;50.980;18.204;2023-03-23T06:41:03;14.30;;;8.70;;
57337;SDS011;43173;50.980;18.204;2023-03-23T06:43:30;13.70;;;8.00;;
57337;SDS011;43173;50.980;18.204;2023-03-23T06:45:58;12.90;;;8.30;;
57337;SDS011;43173;50.980;18.204;2023-03-23T06:48:25;13.00;;;8.00;;
57337;SDS011;43173;50.980;18.204;2023-03-23T06:50:50;12.10;;;8.20;;
57337;SDS011;43173;50.980;18.204;2023-03-23T06:53:16;13.40;;;8.20;;
57337;SDS011;43173;50.980;18.204;2023-03-23T06:55:43;15.30;;;8.20;;
57337;SDS011;43173;50.980;18.204;2023-03-23T06:58:09;11.90;;;7.70;;
57337;SDS011;43173;50.980;18.204;2023-03-23T07:00:35;15.30;;;7.80;;
57337;SDS011;43173;50.980;18.204;2023-03-23T07:03:00;11.70;;;7.50;;
57337;SDS011;43173;50.980;18.204;2023-03-23T07:05:26;16.20;;;8.50;;
57337;SDS011;43173;50.980;18.204;2023-03-23T07:07:52;14.90;;;7.10;;
57337;SDS011;43173;50.980;18.204;2023-03-23T07:10:18;12.50;;;7.30;;
57337;SDS011;43173;50.980;18.204;2023-03-23T07:12:43;12.80;;;6.90;;
57337;SDS011;43173;50.980;18.204;2023-03-23T07:15:09;10.80;;;6.70;;
57337;SDS011;43173;50.980;18.204;2023-03-23T07:17:36;10.90;;;7.20;;
57337;SDS011;43173;50.980;18.204;2023-03-23T07:20:03;12.10;;;7.10;;
57337;SDS011;43173;50.980;18.204;2023-03-23T07:22:30;11.60;;;7.00;;
57337;SDS011;43173;50.980;18.204;2023-03-23T07:24:56;16.40;;;7.30;;
57337;SDS011;43173;50.980;18.204;2023-03-23T07:27:21;12.30;;;7.90;;
57337;SDS011;43173;50.980;18.204;2023-03-23T07:29:47;11.50;;;8.20;;
57337;SDS011;43173;50.980;18.204;2023-03-23T07:32:12;12.60;;;7.90;;
57337;SDS011;43173;50.980;18.204;2023-03-23T07:34:39;15.80;;;8.00;;
57337;SDS011;43173;50.980;18.204;2023-03-23T07:37:04;14.90;;;7.30;;
57337;SDS011;43173;50.980;18.204;2023-03-23T07:39:31;10.90;;;7.60;;
57337;SDS011;43173;50.980;18.204;2023-03-23T07:41:57;12.90;;;7.40;;
57337;SDS011;43173;50.980;18.204;2023-03-23T07:44:22;12.90;;;7.50;;
57337;SDS011;43173;50.980;18.204;2023-03-23T07:46:48;10.40;;;7.00;;
57337;SDS011;43173;50.980;18.204;2023-03-23T07:49:14;11.60;;;7.60;;
57337;SDS011;43173;50.980;18.204;2023-03-23T07:51:40;11.30;;;7.40;;
57337;SDS011;43173;50.980;18.204;2023-03-23T07:54:06;12.30;;;6.90;;
57337;SDS011;43173;50.980;18.204;2023-03-23T07:56:35;13.10;;;6.80;;
57337;SDS011;43173;50.980;18.204;2023-03-23T07:59:02;13.10;;;6.90;;
57337;SDS011;43173;50.980;18.204;2023-03-23T08:01:30;12.30;;;7.70;;
57337;SDS011;43173;50.980;18.204;2023-03-23T08:03:56;11.80;;;7.70;;
57337;SDS011;43173;50.980;18.204;2023-03-23T08:06:26;16.10;;;8.30;;
57337;SDS011;43173;50.980;18.204;2023-03-23T08:08:52;13.10;;;7.60;;
57337;SDS011;43173;50.980;18.204;2023-03-23T08:11:18;11.10;;;6.80;;
57337;SDS011;43173;50.980;18.204;2023-03-23T08:13:44;8.90;;;6.60;;
57337;SDS011;43173;50.980;18.204;2023-03-23T08:16:10;12.00;;;6.70;;
57337;SDS011;43173;50.980;18.204;2023-03-23T08:18:36;9.50;;;6.10;;
57337;SDS011;43173;50.980;18.204;2023-03-23T08:21:04;8.10;;;5.00;;
57337;SDS011;43173;50.980;18.204;2023-03-23T08:23:31;11.60;;;6.90;;
57337;SDS011;43173;50.980;18.204;2023-03-23T08:25:59;9.10;;;5.80;;
57337;SDS011;43173;50.980;18.204;2023-03-23T08:28:24;7.70;;;4.60;;
57337;SDS011;43173;50.980;18.204;2023-03-23T08:30:50;8.10;;;5.50;;
57337;SDS011;43173;50.980;18.204;2023-03-23T08:33:16;9.00;;;5.30;;
57337;SDS011;43173;50.980;18.204;2023-03-23T08:35:42;12.30;;;5.20;;
57337;SDS011;43173;50.980;18.204;2023-03-23T08:38:10;7.40;;;4.70;;
57337;SDS011;43173;50.980;18.204;2023-03-23T08:40:36;10.20;;;5.20;;
57337;SDS011;43173;50.980;18.204;2023-03-23T08:43:02;8.60;;;5.00;;
57337;SDS011;43173;50.980;18.204;2023-03-23T08:45:29;8.90;;;5.10;;
57337;SDS011;43173;50.980;18.204;2023-03-23T08:47:55;7.30;;;4.60;;
57337;SDS011;43173;50.980;18.204;2023-03-23T08:50:22;8.20;;;4.90;;
57337;SDS011;43173;50.980;18.204;2023-03-23T08:52:49;8.60;;;4.40;;
57337;SDS011;43173;50.980;18.204;2023-03-23T08:55:16;6.60;;;4.70;;
57337;SDS011;43173;50.980;18.204;2023-03-23T08:57:43;7.80;;;4.30;;
57337;SDS011;43173;50.980;18.204;2023-03-23T09:00:11;7.10;;;4.40;;
57337;SDS011;43173;50.980;18.204;2023-03-23T09:02:41;4.50;;;3.60;;
57337;SDS011;43173;50.980;18.204;2023-03-23T09:05:08;7.30;;;4.30;;
57337;SDS011;43173;50.980;18.204;2023-03-23T09:07:37;7.70;;;4.50;;
57337;SDS011;43173;50.980;18.204;2023-03-23T09:10:05;6.10;;;3.80;;
57337;SDS011;43173;50.980;18.204;2023-03-23T09:12:32;6.00;;;3.40;;
57337;SDS011;43173;50.980;18.204;2023-03-23T09:14:58;9.50;;;4.40;;
57337;SDS011;43173;50.980;18.204;2023-03-23T09:17:24;6.10;;;4.10;;
57337;SDS011;43173;50.980;18.204;2023-03-23T09:19:50;8.70;;;4.20;;
57337;SDS011;43173;50.980;18.204;2023-03-23T09:22:16;5.70;;;3.70;;
57337;SDS011;43173;50.980;18.204;2023-03-23T09:24:45;7.80;;;3.80;;
57337;SDS011;43173;50.980;18.204;2023-03-23T09:27:11;7.40;;;4.10;;
57337;SDS011;43173;50.980;18.204;2023-03-23T09:29:37;4.60;;;3.70;;
57337;SDS011;43173;50.980;18.204;2023-03-23T09:32:03;6.60;;;3.80;;
57337;SDS011;43173;50.980;18.204;2023-03-23T09:34:29;6.70;;;3.80;;
57337;SDS011;43173;50.980;18.204;2023-03-23T09:36:55;7.60;;;3.50;;
57337;SDS011;43173;50.980;18.204;2023-03-23T09:39:21;7.00;;;3.60;;
57337;SDS011;43173;50.980;18.204;2023-03-23T09:49:52;9.60;;;6.20;;
57337;SDS011;43173;50.980;18.204;2023-03-23T09:52:20;6.30;;;2.90;;
57337;SDS011;43173;50.980;18.204;2023-03-23T09:54:47;12.10;;;4.70;;
57337;SDS011;43173;50.980;18.204;2023-03-23T10:02:19;7.30;;;3.40;;
57337;SDS011;43173;50.980;18.204;2023-03-23T10:04:54;2.90;;;2.10;;
57337;SDS011;43173;50.980;18.204;2023-03-23T10:07:22;4.80;;;2.90;;
57337;SDS011;43173;50.980;18.204;2023-03-23T10:09:57;3.20;;;2.10;;
57337;SDS011;43173;50.980;18.204;2023-03-23T10:12:49;5.60;;;3.20;;
57337;SDS011;43173;50.980;18.204;2023-03-23T10:15:27;22.00;;;7.90;;
57337;SDS011;43173;50.980;18.204;2023-03-23T10:18:07;3.80;;;2.00;;
57337;SDS011;43173;50.980;18.204;2023-03-23T10:25:51;13.80;;;4.90;;
57337;SDS011;43173;50.980;18.204;2023-03-23T10:28:23;19.40;;;5.90;;
57337;SDS011;43173;50.980;18.204;2023-03-23T10:31:00;13.80;;;3.70;;
57337;SDS011;43173;50.980;18.204;2023-03-23T10:41:15;2.00;;;1.40;;
57337;SDS011;43173;50.980;18.204;2023-03-23T10:43:43;5.80;;;3.30;;
57337;SDS011;43173;50.980;18.204;2023-03-23T10:46:22;7.70;;;3.50;;
57337;SDS011;43173;50.980;18.204;2023-03-23T10:48:58;15.50;;;4.60;;
57337;SDS011;43173;50.980;18.204;2023-03-23T10:51:31;2.70;;;1.60;;
57337;SDS011;43173;50.980;18.204;2023-03-23T10:54:01;3.60;;;2.10;;
57337;SDS011;43173;50.980;18.204;2023-03-23T10:56:34;7.80;;;4.70;;
57337;SDS011;43173;50.980;18.204;2023-03-23T11:01:53;5.40;;;1.90;;
57337;SDS011;43173;50.980;18.204;2023-03-23T11:04:21;11.40;;;2.80;;
57337;SDS011;43173;50.980;18.204;2023-03-23T11:06:49;3.30;;;1.80;;
57337;SDS011;43173;50.980;18.204;2023-03-23T11:09:19;10.70;;;4.70;;
57337;SDS011;43173;50.980;18.204;2023-03-23T11:11:56;6.70;;;2.40;;
57337;SDS011;43173;50.980;18.204;2023-03-23T11:14:27;3.20;;;1.50;;
57337;SDS011;43173;50.980;18.204;2023-03-23T11:16:56;8.40;;;4.90;;
57337;SDS011;43173;50.980;18.204;2023-03-23T11:19:24;10.30;;;5.30;;
57337;SDS011;43173;50.980;18.204;2023-03-23T11:21:52;8.90;;;3.40;;
57337;SDS011;43173;50.980;18.204;2023-03-23T11:24:23;7.90;;;3.90;;
57337;SDS011;43173;50.980;18.204;2023-03-23T11:26:50;3.60;;;1.70;;
57337;SDS011;43173;50.980;18.204;2023-03-23T11:29:25;4.80;;;1.90;;
57337;SDS011;43173;50.980;18.204;2023-03-23T11:32:14;5.00;;;1.90;;
57337;SDS011;43173;50.980;18.204;2023-03-23T11:34:41;2.80;;;1.40;;
57337;SDS011;43173;50.980;18.204;2023-03-23T11:37:12;5.90;;;2.30;;
57337;SDS011;43173;50.980;18.204;2023-03-23T11:39:52;4.40;;;1.80;;
57337;SDS011;43173;50.980;18.204;2023-03-23T11:42:44;3.70;;;1.60;;
57337;SDS011;43173;50.980;18.204;2023-03-23T11:50:36;3.10;;;1.80;;
57337;SDS011;43173;50.980;18.204;2023-03-23T11:58:22;4.00;;;1.20;;
57337;SDS011;43173;50.980;18.204;2023-03-23T12:00:50;1.80;;;1.40;;
57337;SDS011;43173;50.980;18.204;2023-03-23T12:03:21;3.70;;;1.50;;
57337;SDS011;43173;50.980;18.204;2023-03-23T12:26:50;2.40;;;1.40;;
57337;SDS011;43173;50.980;18.204;2023-03-23T12:29:43;3.50;;;2.10;;
57337;SDS011;43173;50.980;18.204;2023-03-23T12:34:54;2.80;;;1.60;;
57337;SDS011;43173;50.980;18.204;2023-03-23T12:37:38;3.90;;;1.90;;
57337;SDS011;43173;50.980;18.204;2023-03-23T12:48:32;4.40;;;2.30;;
57337;SDS011;43173;50.980;18.204;2023-03-23T12:53:54;6.30;;;2.60;;
57337;SDS011;43173;50.980;18.204;2023-03-23T12:56:29;11.90;;;4.70;;
57337;SDS011;43173;50.980;18.204;2023-03-23T12:59:32;6.20;;;3.30;;
57337;SDS011;43173;50.980;18.204;2023-03-23T13:02:05;1.40;;;1.20;;
57337;SDS011;43173;50.980;18.204;2023-03-23T13:04:55;3.10;;;1.60;;
57337;SDS011;43173;50.980;18.204;2023-03-23T13:07:30;4.30;;;2.00;;
57337;SDS011;43173;50.980;18.204;2023-03-23T13:10:04;2.40;;;1.80;;
57337;SDS011;43173;50.980;18.204;2023-03-23T13:12:34;3.30;;;1.70;;
57337;SDS011;43173;50.980;18.204;2023-03-23T13:23:26;7.10;;;2.10;;
57337;SDS011;43173;50.980;18.204;2023-03-23T13:26:03;4.90;;;2.50;;
57337;SDS011;43173;50.980;18.204;2023-03-23T13:33:38;12.10;;;3.80;;
57337;SDS011;43173;50.980;18.204;2023-03-23T13:36:08;4.20;;;2.00;;
57337;SDS011;43173;50.980;18.204;2023-03-23T13:38:36;3.80;;;1.80;;
57337;SDS011;43173;50.980;18.204;2023-03-23T13:41:10;4.80;;;1.90;;
57337;SDS011;43173;50.980;18.204;2023-03-23T13:43:38;2.80;;;1.20;;
57337;SDS011;43173;50.980;18.204;2023-03-23T13:46:07;18.80;;;6.70;;
57337;SDS011;43173;50.980;18.204;2023-03-23T13:49:15;2.40;;;1.50;;
57337;SDS011;43173;50.980;18.204;2023-03-23T13:54:39;2.40;;;1.40;;
57337;SDS011;43173;50.980;18.204;2023-03-23T13:59:30;3.60;;;1.50;;
57337;SDS011;43173;50.980;18.204;2023-03-23T14:05:08;2.70;;;1.90;;
57337;SDS011;43173;50.980;18.204;2023-03-23T14:13:19;6.80;;;2.30;;
57337;SDS011;43173;50.980;18.204;2023-03-23T14:16:03;5.10;;;2.10;;
57337;SDS011;43173;50.980;18.204;2023-03-23T14:18:35;6.10;;;2.70;;
57337;SDS011;43173;50.980;18.204;2023-03-23T14:21:03;8.00;;;2.30;;
57337;SDS011;43173;50.980;18.204;2023-03-23T14:23:30;4.60;;;2.80;;
57337;SDS011;43173;50.980;18.204;2023-03-23T14:26:01;8.10;;;2.70;;
57337;SDS011;43173;50.980;18.204;2023-03-23T14:28:40;5.70;;;3.00;;
57337;SDS011;43173;50.980;18.204;2023-03-23T14:33:49;10.60;;;4.50;;
57337;SDS011;43173;50.980;18.204;2023-03-23T14:36:23;5.80;;;3.00;;
57337;SDS011;43173;50.980;18.204;2023-03-23T14:39:00;6.50;;;2.90;;
57337;SDS011;43173;50.980;18.204;2023-03-23T14:41:29;7.80;;;3.20;;
57337;SDS011;43173;50.980;18.204;2023-03-23T14:43:56;8.80;;;3.60;;
57337;SDS011;43173;50.980;18.204;2023-03-23T14:46:22;11.00;;;4.80;;
57337;SDS011;43173;50.980;18.204;2023-03-23T14:48:50;10.00;;;5.50;;
57337;SDS011;43173;50.980;18.204;2023-03-23T14:51:19;8.80;;;5.00;;
57337;SDS011;43173;50.980;18.204;2023-03-23T14:53:46;6.50;;;3.60;;
57337;SDS011;43173;50.980;18.204;2023-03-23T14:56:14;9.30;;;4.30;;
57337;SDS011;43173;50.980;18.204;2023-03-23T14:58:44;5.70;;;3.50;;
57337;SDS011;43173;50.980;18.204;2023-03-23T15:01:22;8.90;;;3.50;;
57337;SDS011;43173;50.980;18.204;2023-03-23T15:04:01;7.30;;;3.30;;
57337;SDS011;43173;50.980;18.204;2023-03-23T15:06:33;9.20;;;3.10;;
57337;SDS011;43173;50.980;18.204;2023-03-23T15:09:01;9.30;;;4.30;;
57337;SDS011;43173;50.980;18.204;2023-03-23T15:11:29;10.00;;;4.00;;
57337;SDS011;43173;50.980;18.204;2023-03-23T15:13:57;10.60;;;4.90;;
57337;SDS011;43173;50.980;18.204;2023-03-23T15:16:32;11.40;;;4.20;;
57337;SDS011;43173;50.980;18.204;2023-03-23T15:19:05;11.10;;;4.50;;
57337;SDS011;43173;50.980;18.204;2023-03-23T15:27:12;12.80;;;4.90;;
57337;SDS011;43173;50.980;18.204;2023-03-23T15:34:51;11.40;;;4.80;;
57337;SDS011;43173;50.980;18.204;2023-03-23T15:37:20;9.60;;;5.70;;
57337;SDS011;43173;50.980;18.204;2023-03-23T15:39:51;13.30;;;6.50;;
57337;SDS011;43173;50.980;18.204;2023-03-23T15:42:24;10.20;;;5.70;;
57337;SDS011;43173;50.980;18.204;2023-03-23T15:44:56;13.20;;;8.10;;
57337;SDS011;43173;50.980;18.204;2023-03-23T15:47:37;15.20;;;8.40;;
57337;SDS011;43173;50.980;18.204;2023-03-23T15:50:18;19.50;;;8.00;;
57337;SDS011;43173;50.980;18.204;2023-03-23T15:52:47;29.40;;;11.60;;
57337;SDS011;43173;50.980;18.204;2023-03-23T15:55:20;26.70;;;10.50;;
57337;SDS011;43173;50.980;18.204;2023-03-23T15:57:48;13.80;;;6.40;;
57337;SDS011;43173;50.980;18.204;2023-03-23T16:00:18;12.10;;;7.00;;
57337;SDS011;43173;50.980;18.204;2023-03-23T16:02:45;14.40;;;6.90;;
57337;SDS011;43173;50.980;18.204;2023-03-23T16:05:12;15.30;;;6.00;;
57337;SDS011;43173;50.980;18.204;2023-03-23T16:07:38;13.20;;;6.20;;
57337;SDS011;43173;50.980;18.204;2023-03-23T16:10:14;13.50;;;6.10;;
57337;SDS011;43173;50.980;18.204;2023-03-23T16:12:42;11.00;;;5.60;;
57337;SDS011;43173;50.980;18.204;2023-03-23T16:15:08;13.20;;;6.90;;
57337;SDS011;43173;50.980;18.204;2023-03-23T16:17:33;12.00;;;7.90;;
57337;SDS011;43173;50.980;18.204;2023-03-23T16:19:59;13.00;;;6.50;;
57337;SDS011;43173;50.980;18.204;2023-03-23T16:22:25;11.60;;;6.40;;
57337;SDS011;43173;50.980;18.204;2023-03-23T16:24:50;11.90;;;6.10;;
57337;SDS011;43173;50.980;18.204;2023-03-23T16:27:16;13.60;;;7.40;;
57337;SDS011;43173;50.980;18.204;2023-03-23T16:29:41;11.30;;;6.70;;
57337;SDS011;43173;50.980;18.204;2023-03-23T16:32:07;17.70;;;8.50;;
57337;SDS011;43173;50.980;18.204;2023-03-23T16:34:33;15.30;;;7.50;;
57337;SDS011;43173;50.980;18.204;2023-03-23T16:37:00;14.60;;;7.10;;
57337;SDS011;43173;50.980;18.204;2023-03-23T16:39:26;14.20;;;6.40;;
57337;SDS011;43173;50.980;18.204;2023-03-23T16:41:51;14.90;;;6.30;;
57337;SDS011;43173;50.980;18.204;2023-03-23T16:44:17;8.80;;;4.70;;
57337;SDS011;43173;50.980;18.204;2023-03-23T16:46:43;7.20;;;4.30;;
57337;SDS011;43173;50.980;18.204;2023-03-23T16:49:08;10.20;;;4.80;;
57337;SDS011;43173;50.980;18.204;2023-03-23T16:51:34;10.80;;;6.00;;
57337;SDS011;43173;50.980;18.204;2023-03-23T16:54:00;12.40;;;6.50;;
57337;SDS011;43173;50.980;18.204;2023-03-23T16:56:25;12.50;;;5.90;;
57337;SDS011;43173;50.980;18.204;2023-03-23T16:58:51;16.20;;;8.20;;